Time;durP1;ratioP1;P1;durP2;ratioP2;P2;SDS_P1;SDS_P2;PMS_P1;PMS_P2;Temp;Humidity;BMP_temperature;BMP_pressure;BME280_temperature;BME280_humidity;BME280_pressure;Samples;Min_cycle;Max_cycle;Signal;HPM_P1;HPM_P2
2022/09/18 00:01:41;;;;;;;;;4.00;4.00;;;;;13.68;51.66;101522.13;5120629;27;46002;-59
2022/09/18 00:04:07;;;;;;;;;4.00;4.00;;;;;13.65;51.36;101519.59;5114029;27;45428;-59
2022/09/18 00:06:38;;;;;;;;;4.00;4.00;;;;;13.64;51.33;101517.84;5115046;27;47120;-59
2022/09/18 00:09:07;;;;;;;;;5.00;3.67;;;;;13.63;51.59;101516.13;5090749;27;45357;-59
2022/09/18 00:11:36;;;;;;;;;4.00;4.00;;;;;13.61;51.65;101510.88;5120243;27;45493;-59
2022/09/18 00:14:03;;;;;;;;;4.00;3.33;;;;;13.62;51.80;101506.38;5120523;27;45444;-59
2022/09/18 00:16:28;;;;;;;;;7.00;3.00;;;;;13.61;52.26;101507.34;5119664;27;46629;-59
2022/09/18 00:18:53;;;;;;;;;3.00;3.00;;;;;13.61;51.78;101510.00;5113890;27;45240;-59
2022/09/18 00:21:23;;;;;;;;;4.00;4.00;;;;;13.57;52.16;101501.31;5109800;27;45584;-58
2022/09/18 00:23:50;;;;;;;;;2.00;2.00;;;;;13.53;51.96;101500.59;5099776;27;45537;-59
2022/09/18 00:26:17;;;;;;;;;4.00;2.33;;;;;13.56;52.40;101503.13;5083726;27;46075;-59
2022/09/18 00:28:42;;;;;;;;;5.00;4.00;;;;;13.56;52.05;101505.78;5090240;27;45586;-59
2022/09/18 00:31:12;;;;;;;;;4.00;3.00;;;;;13.57;51.92;101510.19;5097969;27;45228;-59
2022/09/18 00:33:38;;;;;;;;;5.33;4.00;;;;;13.54;51.93;101502.34;5098478;27;45293;-59
2022/09/18 00:36:06;;;;;;;;;3.00;3.00;;;;;13.57;52.52;101502.16;5098998;27;45530;-57
2022/09/18 00:38:32;;;;;;;;;3.00;3.00;;;;;13.56;52.52;101513.81;5078653;27;45436;-58
2022/09/18 00:41:04;;;;;;;;;5.33;4.33;;;;;13.54;52.55;101505.00;5077625;27;45288;-58
2022/09/18 00:43:32;;;;;;;;;3.33;3.33;;;;;13.51;52.64;101505.16;5079397;27;45440;-60
2022/09/18 00:46:06;;;;;;;;;3.67;3.67;;;;;13.49;52.31;101514.22;5078827;27;46346;-59
2022/09/18 00:49:12;;;;;;;;;3.33;3.00;;;;;13.47;52.66;101508.09;5078990;27;45278;-60
2022/09/18 00:51:39;;;;;;;;;3.67;3.67;;;;;13.44;53.07;101498.44;5085799;27;45413;-60
2022/09/18 00:54:24;;;;;;;;;2.00;2.00;;;;;13.45;52.92;101508.16;5110207;27;45523;-59
2022/09/18 00:56:52;;;;;;;;;2.33;2.00;;;;;13.46;52.94;101512.56;5098750;27;46396;-60
2022/09/18 00:59:24;;;;;;;;;4.67;4.00;;;;;13.46;52.91;101507.22;5101076;27;45430;-59
2022/09/18 01:01:49;;;;;;;;;2.67;2.67;;;;;13.44;52.47;101509.13;5079432;27;45325;-59
2022/09/18 01:04:15;;;;;;;;;4.00;2.33;;;;;13.43;52.67;101511.88;5098776;27;45231;-59
2022/09/18 01:07:08;;;;;;;;;3.33;2.33;;;;;13.44;52.83;101517.13;5098329;27;45959;-58
2022/09/18 01:10:15;;;;;;;;;6.00;4.00;;;;;13.42;53.04;101527.03;5084250;27;45293;-58
2022/09/18 01:13:00;;;;;;;;;4.00;2.00;;;;;13.38;53.05;101525.47;5063463;27;45472;-59
2022/09/18 01:15:41;;;;;;;;;3.00;3.00;;;;;13.22;53.13;101496.03;5082774;27;45215;-58
2022/09/18 01:18:31;;;;;;;;;4.00;2.00;;;;;13.35;52.81;101516.75;5077860;27;46349;-58
2022/09/18 01:21:19;;;;;;;;;4.67;4.00;;;;;13.18;53.00;101489.13;5079398;27;45430;-59
2022/09/18 01:24:22;;;;;;;;;2.67;2.67;;;;;13.35;53.39;101498.91;5078028;27;45417;-59
2022/09/18 01:26:59;;;;;;;;;2.00;2.00;;;;;13.35;52.67;101508.72;5057965;27;46013;-59
2022/09/18 01:29:38;;;;;;;;;3.33;2.00;;;;;13.29;53.60;101504.59;5114121;27;46303;-59
2022/09/18 01:32:15;;;;;;;;;4.00;3.00;;;;;13.29;53.02;101509.94;5114899;27;45317;-59
2022/09/18 01:35:05;;;;;;;;;3.00;3.00;;;;;13.27;53.69;101504.66;5078247;27;45306;-59
2022/09/18 01:37:45;;;;;;;;;2.67;2.00;;;;;13.29;53.75;101509.94;5092393;27;45369;-59
2022/09/18 01:40:28;;;;;;;;;2.00;2.00;;;;;13.26;53.72;101510.06;5098185;27;46280;-58
2022/09/18 01:43:01;;;;;;;;;4.00;2.33;;;;;13.21;53.63;101507.66;5101507;27;45590;-58
2022/09/18 01:45:34;;;;;;;;;1.67;1.67;;;;;13.21;53.23;101506.78;5131420;27;45335;-59
2022/09/18 01:48:04;;;;;;;;;3.00;2.00;;;;;13.18;53.24;101498.91;5114778;27;45369;-59
2022/09/18 01:50:32;;;;;;;;;2.00;2.00;;;;;13.19;53.79;101500.66;5087758;27;47407;-59
2022/09/18 01:53:13;;;;;;;;;4.00;2.00;;;;;13.16;53.21;101511.50;5077903;27;45285;-59
2022/09/18 01:55:44;;;;;;;;;2.33;1.33;;;;;13.14;53.83;101503.53;5077613;27;45388;-59
2022/09/18 01:58:17;;;;;;;;;2.00;2.00;;;;;13.12;53.67;101504.56;5088504;27;45394;-59
2022/09/18 02:00:50;;;;;;;;;2.00;2.00;;;;;13.11;53.61;101498.34;5105403;27;46248;-59
2022/09/18 02:03:24;;;;;;;;;2.00;2.00;;;;;13.07;53.85;101498.59;5098455;27;45309;-60
2022/09/18 02:06:09;;;;;;;;;2.00;2.00;;;;;13.06;53.83;101503.09;5109062;27;45391;-59
2022/09/18 02:08:47;;;;;;;;;2.67;2.67;;;;;13.07;54.42;101493.25;5122545;27;45417;-59
2022/09/18 02:11:14;;;;;;;;;1.00;1.00;;;;;12.99;53.81;101480.28;5118126;27;45382;-59
2022/09/18 02:14:07;;;;;;;;;2.00;2.00;;;;;13.03;53.87;101492.56;5105394;27;45367;-59
2022/09/18 02:16:52;;;;;;;;;2.00;2.00;;;;;13.03;54.45;101489.03;5118724;27;45342;-58
2022/09/18 02:19:21;;;;;;;;;2.67;2.67;;;;;13.05;54.31;101497.81;5090730;27;45337;-60
2022/09/18 02:21:49;;;;;;;;;3.00;3.00;;;;;12.98;54.28;101489.25;5077406;27;45491;-64
2022/09/18 02:24:18;;;;;;;;;4.00;2.67;;;;;12.96;54.56;101484.00;5088938;27;45382;-59
2022/09/18 02:26:47;;;;;;;;;1.00;1.00;;;;;12.93;54.66;101485.97;5113041;27;45384;-59
2022/09/18 02:29:16;;;;;;;;;2.00;2.00;;;;;12.86;54.62;101480.06;5116341;27;45536;-58
2022/09/18 02:31:42;;;;;;;;;2.00;2.00;;;;;12.95;54.52;101490.28;5108162;27;46469;-60
2022/09/18 02:34:11;;;;;;;;;2.00;2.00;;;;;12.93;54.38;101481.50;5118159;27;45684;-59
2022/09/18 02:36:43;;;;;;;;;2.00;2.00;;;;;12.92;54.73;101485.09;5111325;27;45381;-60
2022/09/18 02:39:29;;;;;;;;;3.33;3.00;;;;;12.90;54.64;101496.81;5097799;27;45233;-59
2022/09/18 02:42:15;;;;;;;;;2.00;2.00;;;;;12.88;54.72;101499.53;5094010;27;45835;-59
2022/09/18 02:45:31;;;;;;;;;4.00;4.00;;;;;12.83;55.09;101496.25;5076860;27;45396;-59
2022/09/18 02:48:23;;;;;;;;;2.00;2.00;;;;;12.82;54.92;101489.19;5014458;28;45527;-59
2022/09/18 02:51:15;;;;;;;;;5.00;2.00;;;;;12.81;55.05;101486.59;5097459;27;45480;-58
2022/09/18 02:53:49;;;;;;;;;3.00;3.00;;;;;12.79;54.94;101489.34;5097484;27;46064;-59
2022/09/18 02:56:41;;;;;;;;;2.00;2.00;;;;;12.75;55.20;101486.88;5096096;27;45373;-59
2022/09/18 02:59:33;;;;;;;;;4.67;3.00;;;;;12.74;55.09;101486.03;5095927;27;45496;-59
2022/09/18 03:01:59;;;;;;;;;4.33;4.33;;;;;12.72;55.49;101479.91;5095834;27;45504;-61
2022/09/18 03:04:26;;;;;;;;;2.00;2.00;;;;;12.73;54.87;101472.75;5104699;27;47006;-59
2022/09/18 03:06:52;;;;;;;;;1.00;1.00;;;;;12.69;55.12;101472.06;5100986;27;45351;-60
2022/09/18 03:09:18;;;;;;;;;1.00;1.00;;;;;12.68;55.32;101476.53;5094523;27;45360;-59
2022/09/18 03:11:44;;;;;;;;;3.67;2.00;;;;;12.67;55.60;101465.94;5097739;27;45252;-58
2022/09/18 03:14:10;;;;;;;;;2.00;2.00;;;;;12.67;55.08;101469.47;5099266;27;45621;-60
2022/09/18 03:16:35;;;;;;;;;1.67;1.67;;;;;12.66;54.83;101472.22;5100485;27;45433;-59
2022/09/18 03:19:00;;;;;;;;;1.00;1.00;;;;;12.56;55.39;101452.28;5119227;27;45345;-59
2022/09/18 03:21:26;;;;;;;;;4.00;3.00;;;;;12.57;55.25;101467.34;5109555;27;45529;-59
2022/09/18 03:23:53;;;;;;;;;4.00;3.00;;;;;12.56;55.15;101460.28;5088476;27;45652;-59
2022/09/18 03:26:18;;;;;;;;;1.67;1.67;;;;;12.51;55.41;101459.66;5094277;27;45441;-60
2022/09/18 03:28:44;;;;;;;;;1.00;1.00;;;;;12.48;55.68;101460.66;5096968;27;45513;-59
2022/09/18 03:31:10;;;;;;;;;3.00;3.00;;;;;12.48;55.60;101466.00;5092920;27;45575;-60
2022/09/18 03:33:36;;;;;;;;;1.00;1.00;;;;;12.46;55.89;101465.22;5101145;27;47336;-62
2022/09/18 03:36:02;;;;;;;;;2.67;2.00;;;;;12.35;55.85;101441.72;5115722;27;45356;-60
2022/09/18 03:38:28;;;;;;;;;4.00;2.00;;;;;12.47;55.96;101456.28;5108002;27;45536;-60
2022/09/18 03:40:53;;;;;;;;;3.00;2.67;;;;;12.46;56.20;101459.88;5103317;27;45494;-60
2022/09/18 03:43:19;;;;;;;;;1.67;1.67;;;;;12.43;56.07;101453.84;5095061;27;46720;-59
2022/09/18 03:45:44;;;;;;;;;4.00;2.00;;;;;12.41;56.20;101453.91;5096923;27;45269;-60
2022/09/18 03:48:09;;;;;;;;;2.00;2.00;;;;;12.39;56.49;101447.81;5106972;27;45846;-59
2022/09/18 03:50:35;;;;;;;;;3.50;2.00;;;;;12.33;56.18;101445.44;5097063;27;45649;-59
2022/09/18 03:53:00;;;;;;;;;2.00;2.00;;;;;12.37;56.42;101449.69;5101418;27;45928;-59
2022/09/18 03:55:26;;;;;;;;;2.33;2.33;;;;;12.36;56.52;101448.78;5101012;27;45719;-58
2022/09/18 03:57:52;;;;;;;;;1.75;1.75;;;;;12.35;56.53;101447.06;5096543;27;46058;-60
2022/09/18 04:00:17;;;;;;;;;2.50;2.25;;;;;12.35;56.44;101455.06;5096893;27;45557;-60
2022/09/18 04:02:43;;;;;;;;;3.75;2.00;;;;;12.28;57.11;101440.34;5096277;27;45313;-60
2022/09/18 04:05:09;;;;;;;;;2.00;2.00;;;;;12.28;56.81;101448.34;5101880;27;45386;-58
2022/09/18 04:07:35;;;;;;;;;2.00;2.00;;;;;12.33;56.77;101462.28;5114197;27;45387;-58
2022/09/18 04:10:01;;;;;;;;;4.00;2.00;;;;;12.31;56.65;101461.50;5112583;27;45279;-58
2022/09/18 04:12:26;;;;;;;;;3.00;2.00;;;;;12.28;56.56;101443.00;5096159;27;45362;-57
2022/09/18 04:14:52;;;;;;;;;2.00;2.00;;;;;12.30;56.86;101461.59;5096113;27;45559;-59
2022/09/18 04:17:17;;;;;;;;;2.00;2.00;;;;;12.26;56.83;101446.69;5093678;27;45815;-59
2022/09/18 04:19:43;;;;;;;;;2.50;2.50;;;;;12.25;56.97;101451.16;5075228;28;45376;-59
2022/09/18 04:22:08;;;;;;;;;2.00;2.00;;;;;12.27;57.02;101454.59;5087166;27;47043;-58
2022/09/18 04:24:35;;;;;;;;;2.00;2.00;;;;;12.25;57.14;101456.50;5089052;27;45730;-59
2022/09/18 04:27:01;;;;;;;;;4.00;3.00;;;;;12.26;57.10;101452.88;5092274;27;45210;-59
2022/09/18 04:29:27;;;;;;;;;2.00;2.00;;;;;12.25;57.26;101459.16;5114532;27;45499;-59
2022/09/18 04:31:52;;;;;;;;;3.67;3.67;;;;;12.24;57.32;101452.09;5112542;27;46091;-59
2022/09/18 04:34:17;;;;;;;;;4.00;3.00;;;;;12.23;57.42;101445.00;5095738;27;45243;-59
2022/09/18 04:36:43;;;;;;;;;1.00;1.00;;;;;12.21;57.58;101446.88;5097216;27;45395;-58
2022/09/18 04:39:08;;;;;;;;;4.00;2.25;;;;;12.22;57.27;101459.28;5097437;27;45592;-59
2022/09/18 04:41:33;;;;;;;;;2.00;2.00;;;;;12.18;57.62;101455.06;5108381;27;45940;-60
2022/09/18 04:43:59;;;;;;;;;2.00;2.00;;;;;12.19;57.67;101456.78;5102672;27;45431;-59
2022/09/18 04:46:24;;;;;;;;;1.33;1.00;;;;;12.21;57.77;101456.69;5119863;27;45350;-59
2022/09/18 04:48:50;;;;;;;;;2.67;2.67;;;;;12.20;57.65;101460.31;5120150;27;45873;-57
2022/09/18 04:51:15;;;;;;;;;3.00;2.67;;;;;12.20;57.75;101466.50;5080891;27;47521;-59
2022/09/18 04:53:40;;;;;;;;;2.00;2.00;;;;;12.21;57.88;101464.69;5078496;28;45420;-59
2022/09/18 04:56:06;;;;;;;;;2.00;2.00;;;;;12.20;58.24;101465.63;5084582;27;45565;-59
2022/09/18 04:58:32;;;;;;;;;4.00;3.50;;;;;12.18;57.69;101465.72;5104585;27;45472;-58
2022/09/18 05:00:57;;;;;;;;;1.67;1.67;;;;;12.17;57.92;101458.66;5099248;27;45532;-60
2022/09/18 05:03:23;;;;;;;;;3.00;3.00;;;;;12.16;58.07;101467.59;5109626;27;45348;-60
2022/09/18 05:05:49;;;;;;;;;3.00;2.50;;;;;12.15;57.85;101460.53;5119569;27;45362;-61
2022/09/18 05:08:14;;;;;;;;;2.00;2.00;;;;;12.14;58.04;101466.81;5101667;27;45416;-59
2022/09/18 05:10:41;;;;;;;;;2.00;2.00;;;;;12.14;58.18;101469.47;5097472;27;46023;-59
2022/09/18 05:13:07;;;;;;;;;2.00;2.00;;;;;12.13;58.15;101467.75;5096364;27;45194;-59
2022/09/18 05:15:33;;;;;;;;;3.00;3.00;;;;;12.10;58.00;101466.06;5097555;27;45369;-59
2022/09/18 05:18:04;;;;;;;;;2.00;2.00;;;;;12.11;58.33;101474.97;5106162;27;45641;-59
2022/09/18 05:20:30;;;;;;;;;2.67;2.00;;;;;12.10;58.11;101466.06;5098649;27;46538;-58
2022/09/18 05:22:56;;;;;;;;;3.00;3.00;;;;;12.09;58.51;101471.50;5101900;27;45482;-59
2022/09/18 05:25:26;;;;;;;;;3.00;3.00;;;;;12.04;58.46;101468.19;5104466;27;45293;-60
2022/09/18 05:27:54;;;;;;;;;3.00;3.00;;;;;12.06;58.92;101467.19;5090660;27;45796;-59
2022/09/18 05:30:20;;;;;;;;;3.75;3.00;;;;;12.07;58.65;101473.38;5078236;27;45971;-58
2022/09/18 05:32:54;;;;;;;;;2.75;2.75;;;;;12.07;58.68;101473.38;5090429;27;45312;-58
2022/09/18 05:35:19;;;;;;;;;2.75;2.75;;;;;12.08;58.64;101480.44;5102102;27;45383;-59
2022/09/18 05:37:44;;;;;;;;;2.75;2.75;;;;;12.06;58.77;101479.63;5079984;27;45614;-58
2022/09/18 05:40:10;;;;;;;;;3.00;3.00;;;;;11.98;58.96;101458.69;5098658;27;46168;-59
2022/09/18 05:42:35;;;;;;;;;5.00;2.50;;;;;11.98;58.57;101471.13;5098832;27;45285;-59
2022/09/18 05:45:01;;;;;;;;;3.50;2.75;;;;;12.05;58.95;101481.44;5091991;27;45438;-60
2022/09/18 05:47:26;;;;;;;;;3.00;3.00;;;;;12.05;58.63;101485.91;5088969;27;46748;-57
2022/09/18 05:49:51;;;;;;;;;3.25;3.25;;;;;12.04;58.83;101478.84;5106850;27;45184;-57
2022/09/18 05:52:17;;;;;;;;;3.00;2.00;;;;;12.04;58.86;101478.84;5105450;27;45307;-58
2022/09/18 05:54:42;;;;;;;;;2.75;2.75;;;;;12.02;59.02;101464.75;5102213;27;45299;-60
2022/09/18 05:57:07;;;;;;;;;2.50;2.50;;;;;12.03;59.03;101477.13;5117581;27;45523;-58
2022/09/18 05:59:33;;;;;;;;;2.75;2.75;;;;;11.96;59.07;101460.53;5117481;27;46138;-57
2022/09/18 06:01:58;;;;;;;;;2.00;2.00;;;;;12.03;59.35;101477.13;5104897;27;45273;-57
2022/09/18 06:04:24;;;;;;;;;2.00;2.00;;;;;12.01;59.46;101474.53;5096318;27;45666;-58
2022/09/18 06:06:49;;;;;;;;;2.75;2.75;;;;;12.04;59.11;101479.72;5105965;27;45602;-59
2022/09/18 06:09:15;;;;;;;;;4.00;2.00;;;;;12.06;59.50;101480.50;5118502;27;45923;-60
2022/09/18 06:11:40;;;;;;;;;3.25;2.50;;;;;12.05;59.28;101480.59;5107341;27;45420;-60
2022/09/18 06:14:06;;;;;;;;;1.75;1.75;;;;;12.03;59.41;101480.66;5097897;27;45471;-58
2022/09/18 06:16:31;;;;;;;;;4.75;3.00;;;;;12.06;59.19;101488.50;5095471;27;45582;-58
2022/09/18 06:18:56;;;;;;;;;4.00;2.50;;;;;12.06;59.34;101484.97;5097699;27;46064;-59
2022/09/18 06:21:22;;;;;;;;;3.00;3.00;;;;;12.12;58.99;101495.38;5106405;27;45375;-59
2022/09/18 06:23:47;;;;;;;;;3.00;3.00;;;;;12.15;59.37;101491.69;5107449;27;45716;-61
2022/09/18 06:26:12;;;;;;;;;4.00;2.25;;;;;12.17;59.34;101496.00;5083590;27;45550;-58
2022/09/18 06:28:38;;;;;;;;;2.50;2.50;;;;;12.18;59.34;101492.38;5098928;27;45500;-60
2022/09/18 06:31:04;;;;;;;;;2.75;2.75;;;;;12.18;59.18;101496.84;5096420;27;45652;-59
2022/09/18 06:33:30;;;;;;;;;2.50;2.50;;;;;12.13;59.49;101496.22;5103872;27;45527;-58
2022/09/18 06:35:56;;;;;;;;;4.00;2.00;;;;;12.15;59.57;101484.53;5110383;27;45311;-60
2022/09/18 06:38:21;;;;;;;;;2.00;2.00;;;;;12.22;59.25;101499.28;5096229;27;45425;-59
2022/09/18 06:40:48;;;;;;;;;4.00;4.00;;;;;12.19;59.56;101493.25;5078700;27;45351;-59
2022/09/18 06:43:14;;;;;;;;;1.33;1.33;;;;;12.27;59.31;101501.75;5097629;27;45524;-59
2022/09/18 06:45:39;;;;;;;;;1.00;1.00;;;;;12.27;59.25;101491.94;5097671;27;45407;-59
2022/09/18 06:48:05;;;;;;;;;1.33;1.33;;;;;12.27;58.97;101493.75;5091892;27;45529;-59
2022/09/18 06:50:30;;;;;;;;;2.00;1.75;;;;;12.30;59.31;101490.94;5099305;27;45747;-60
2022/09/18 06:53:04;;;;;;;;;3.00;3.00;;;;;12.26;59.40;101484.88;5103845;27;45898;-60
2022/09/18 06:55:30;;;;;;;;;4.00;2.25;;;;;12.30;59.78;101494.47;5091011;27;45604;-58
2022/09/18 06:57:57;;;;;;;;;1.00;1.00;;;;;12.29;59.43;101497.19;5097212;27;45430;-58
2022/09/18 07:00:23;;;;;;;;;0.25;0.25;;;;;12.26;59.60;101492.88;5093197;27;45507;-59
2022/09/18 07:03:00;;;;;;;;;2.25;2.25;;;;;12.27;59.37;101483.94;5077057;27;45334;-58
2022/09/18 07:05:27;;;;;;;;;3.25;3.00;;;;;12.29;59.95;101495.41;5085974;27;45380;-61
2022/09/18 07:07:53;;;;;;;;;1.50;1.50;;;;;12.33;59.79;101491.63;5106110;27;46038;-59
2022/09/18 07:10:19;;;;;;;;;1.00;1.00;;;;;12.38;60.12;101492.28;5094568;27;45402;-61
2022/09/18 07:12:47;;;;;;;;;6.75;2.75;;;;;12.39;59.81;101488.69;5093076;27;45542;-58
2022/09/18 07:15:15;;;;;;;;;2.00;2.00;;;;;12.44;60.10;101492.91;5078599;27;45476;-57
2022/09/18 07:17:41;;;;;;;;;2.25;2.25;;;;;12.50;60.26;101498.81;5095258;27;46243;-58
2022/09/18 07:20:06;;;;;;;;;3.00;2.75;;;;;12.53;60.49;101497.81;5093113;27;45873;-59
2022/09/18 07:22:32;;;;;;;;;1.25;1.25;;;;;12.53;59.62;101497.81;5099651;27;45539;-59
2022/09/18 07:24:57;;;;;;;;;3.50;3.50;;;;;12.63;59.71;101509.72;5080544;27;45616;-59
2022/09/18 07:27:23;;;;;;;;;1.75;1.75;;;;;12.63;60.00;101488.38;5092428;27;45317;-60
2022/09/18 07:29:48;;;;;;;;;2.00;2.00;;;;;12.60;59.96;101485.88;5088655;27;45403;-58
2022/09/18 07:32:14;;;;;;;;;3.00;3.00;;;;;12.70;59.94;101496.00;5075770;28;45345;-59
2022/09/18 07:34:39;;;;;;;;;3.00;3.00;;;;;12.80;59.38;101495.56;5084780;27;45667;-57
2022/09/18 07:37:05;;;;;;;;;3.00;3.00;;;;;12.88;59.30;101502.19;5095302;27;46085;-59
2022/09/18 07:39:30;;;;;;;;;2.00;2.00;;;;;12.88;60.01;101504.00;5107456;27;45572;-61
2022/09/18 07:41:56;;;;;;;;;2.75;2.00;;;;;12.92;59.87;101503.78;5083718;27;45372;-56
2022/09/18 07:44:21;;;;;;;;;2.00;2.00;;;;;12.94;59.53;101493.91;5088769;27;45390;-58
2022/09/18 07:46:46;;;;;;;;;2.00;2.00;;;;;12.96;59.88;101502.69;5108446;27;45419;-58
2022/09/18 07:49:11;;;;;;;;;3.00;3.00;;;;;13.02;59.23;101500.63;5074642;27;45350;-54
2022/09/18 07:51:37;;;;;;;;;3.33;3.00;;;;;13.07;59.25;101495.94;5083791;27;45474;-57
2022/09/18 07:54:02;;;;;;;;;4.67;3.67;;;;;13.18;59.94;101496.25;5107633;27;45504;-53
2022/09/18 07:56:28;;;;;;;;;3.00;3.00;;;;;13.22;59.42;101508.50;5092058;27;45976;-55
2022/09/18 07:58:53;;;;;;;;;3.00;3.00;;;;;13.19;59.69;101504.19;5111218;27;45453;-56
2022/09/18 08:01:18;;;;;;;;;3.67;3.00;;;;;13.20;59.64;101513.09;5113158;27;45341;-56
2022/09/18 08:03:44;;;;;;;;;2.00;2.00;;;;;13.30;59.13;101511.66;5095566;27;45651;-54
2022/09/18 08:06:10;;;;;;;;;2.00;2.00;;;;;13.30;58.88;101502.78;5096625;27;45203;-57
2022/09/18 08:08:35;;;;;;;;;2.67;2.67;;;;;13.34;58.54;101502.53;5096231;27;45375;-56
2022/09/18 08:11:02;;;;;;;;;4.67;2.00;;;;;13.42;58.35;101503.00;5099890;27;45461;-55
2022/09/18 08:13:27;;;;;;;;;3.00;3.00;;;;;13.46;58.24;101507.22;5108945;27;45676;-57
2022/09/18 08:15:52;;;;;;;;;2.00;2.00;;;;;13.50;58.26;101508.78;5100139;27;45574;-57
2022/09/18 08:18:20;;;;;;;;;1.67;1.67;;;;;13.53;58.55;101503.25;5110475;27;45639;-56
2022/09/18 08:20:45;;;;;;;;;4.00;4.00;;;;;13.52;58.62;101501.53;5093619;27;46213;-58
2022/09/18 08:23:11;;;;;;;;;2.67;2.67;;;;;13.56;58.60;101513.81;5098393;27;45920;-56
2022/09/18 08:25:37;;;;;;;;;2.67;2.67;;;;;13.55;58.67;101505.88;5098695;27;46375;-62
2022/09/18 08:28:04;;;;;;;;;1.00;1.00;;;;;13.60;59.00;101513.63;5099801;27;45452;-57
2022/09/18 08:30:30;;;;;;;;;3.67;3.67;;;;;13.66;58.09;101515.97;5097949;27;45192;-56
2022/09/18 08:33:00;;;;;;;;;4.00;3.00;;;;;13.69;58.47;101516.69;5079397;27;45267;-56
2022/09/18 08:35:27;;;;;;;;;2.67;2.67;;;;;13.61;59.10;101515.34;5078919;27;47212;-56
2022/09/18 08:37:52;;;;;;;;;4.00;4.00;;;;;13.69;58.67;101518.50;5091504;27;45486;-59
2022/09/18 08:40:25;;;;;;;;;2.33;2.33;;;;;13.82;57.85;101504.38;5084328;27;45421;-61
2022/09/18 08:43:30;;;;;;;;;3.00;3.00;;;;;14.04;57.71;101509.38;5109428;27;45602;-54
2022/09/18 08:46:01;;;;;;;;;3.67;3.67;;;;;14.25;57.25;101511.78;5085593;27;45517;-57
2022/09/18 08:48:30;;;;;;;;;7.00;3.00;;;;;14.53;56.38;101506.63;5116494;27;45439;-59
2022/09/18 08:51:01;;;;;;;;;2.00;2.00;;;;;14.82;55.46;101501.34;5099208;27;45461;-57
2022/09/18 08:53:38;;;;;;;;;4.00;3.00;;;;;15.07;54.69;101506.97;5099415;27;45293;-54
2022/09/18 08:56:14;;;;;;;;;4.00;4.00;;;;;15.34;54.26;101504.44;5098247;27;45746;-57
2022/09/18 08:59:02;;;;;;;;;1.00;1.00;;;;;15.59;52.94;101503.78;5111282;27;45516;-56
2022/09/18 09:01:54;;;;;;;;;3.00;2.00;;;;;15.90;53.10;101500.06;5098755;27;45512;-59
2022/09/18 09:04:27;;;;;;;;;2.00;2.00;;;;;16.26;52.40;101504.88;5098042;27;45455;-56
2022/09/18 09:07:21;;;;;;;;;5.00;3.00;;;;;16.60;52.60;101503.50;5099671;27;46427;-57
2022/09/18 09:10:11;;;;;;;;;3.00;2.00;;;;;16.92;50.22;101503.19;5098934;27;45401;-56
2022/09/18 09:12:54;;;;;;;;;1.67;1.67;;;;;17.20;49.86;101504.88;5086628;27;45523;-56
2022/09/18 09:15:33;;;;;;;;;3.00;2.00;;;;;17.46;49.43;101492.28;5108125;27;45317;-59
2022/09/18 09:18:18;;;;;;;;;3.00;3.00;;;;;17.73;48.75;101501.13;5119456;27;45947;-57
2022/09/18 09:20:52;;;;;;;;;6.00;4.00;;;;;17.96;48.13;101486.84;5100494;27;45290;-52
2022/09/18 09:23:26;;;;;;;;;2.00;2.00;;;;;18.15;47.84;101485.50;5096913;27;45488;-57
2022/09/18 09:26:04;;;;;;;;;3.67;3.33;;;;;18.28;47.33;101480.94;5080827;27;45409;-55
2022/09/18 09:28:54;;;;;;;;;1.00;1.00;;;;;18.41;47.02;101486.25;5078373;27;46074;-58
2022/09/18 09:31:25;;;;;;;;;1.00;1.00;;;;;18.47;46.53;101475.88;5102796;27;45534;-57
2022/09/18 09:34:02;;;;;;;;;2.00;2.00;;;;;18.62;45.85;101475.69;5116422;27;45378;-55
2022/09/18 09:36:31;;;;;;;;;1.00;1.00;;;;;18.72;45.17;101469.53;5098401;27;45685;-56
2022/09/18 09:39:19;;;;;;;;;2.00;2.00;;;;;18.74;45.58;101478.34;5113890;27;47251;-60
2022/09/18 09:42:04;;;;;;;;;3.00;3.00;;;;;18.74;44.80;101461.31;5097251;27;45436;-58
2022/09/18 09:44:42;;;;;;;;;1.67;1.33;;;;;18.90;43.91;101475.34;5098264;27;45365;-58
2022/09/18 09:47:39;;;;;;;;;0.33;0.33;;;;;18.91;44.70;101478.91;5086293;27;47290;-58
2022/09/18 09:50:15;;;;;;;;;2.00;1.00;;;;;18.90;44.04;101486.13;5097976;27;46249;-62
2022/09/18 09:52:43;;;;;;;;;2.67;2.00;;;;;18.88;43.59;101473.72;5097060;27;45399;-59
2022/09/18 09:55:28;;;;;;;;;1.00;1.00;;;;;18.82;43.84;101469.69;5099462;27;45395;-56
2022/09/18 09:58:12;;;;;;;;;1.00;1.00;;;;;18.73;43.27;101479.31;5106836;27;45417;-58
2022/09/18 10:00:48;;;;;;;;;1.00;1.00;;;;;18.61;43.15;101466.75;5098228;27;46671;-57
2022/09/18 10:03:45;;;;;;;;;3.00;2.00;;;;;18.49;43.06;101467.66;5100626;27;45513;-59
2022/09/18 10:06:31;;;;;;;;;1.00;1.00;;;;;18.38;43.60;101473.03;5099481;27;45277;-55
2022/09/18 10:09:20;;;;;;;;;2.00;2.00;;;;;18.15;42.59;101454.06;5101311;27;45530;-51
2022/09/18 10:11:56;;;;;;;;;2.00;2.00;;;;;18.26;43.59;101472.97;5066370;27;46536;-55
2022/09/18 10:14:26;;;;;;;;;1.33;1.33;;;;;18.32;43.28;101470.78;5091879;27;45676;-57
2022/09/18 10:16:55;;;;;;;;;2.67;2.67;;;;;18.32;43.00;101465.41;5077410;27;45262;-55
2022/09/18 10:19:28;;;;;;;;;1.00;1.00;;;;;18.17;41.91;101462.88;5092724;27;45528;-56
2022/09/18 10:21:55;;;;;;;;;2.00;2.00;;;;;18.24;42.51;101461.47;5108320;27;45305;-55
2022/09/18 10:24:53;;;;;;;;;1.67;1.67;;;;;18.24;42.76;101460.59;5116451;27;45543;-58
2022/09/18 10:27:22;;;;;;;;;1.67;1.00;;;;;18.18;42.70;101452.97;5066863;27;45367;-58
2022/09/18 10:29:47;;;;;;;;;3.00;2.00;;;;;18.21;42.61;101450.91;5098410;27;45321;-62
2022/09/18 10:32:32;;;;;;;;;3.00;3.00;;;;;18.24;42.36;101452.53;5084293;27;45701;-57
2022/09/18 10:34:57;;;;;;;;;2.00;2.00;;;;;18.32;42.66;101446.53;5073940;27;45430;-59
2022/09/18 10:37:29;;;;;;;;;2.00;2.00;;;;;18.40;42.28;101441.47;5091197;27;45746;-56
2022/09/18 10:39:58;;;;;;;;;1.00;1.00;;;;;18.43;42.21;101438.53;5098091;27;45554;-58
2022/09/18 10:42:27;;;;;;;;;1.67;1.00;;;;;18.42;41.68;101439.50;5097695;27;45222;-57
2022/09/18 10:44:57;;;;;;;;;3.33;2.00;;;;;18.32;41.67;101439.31;5097436;27;45344;-58
2022/09/18 10:47:26;;;;;;;;;1.00;1.00;;;;;18.35;42.04;101440.94;5098075;27;45413;-58
2022/09/18 10:49:54;;;;;;;;;3.00;3.00;;;;;18.46;41.98;101440.97;5089409;27;45657;-58
2022/09/18 10:52:32;;;;;;;;;1.00;1.00;;;;;18.52;42.58;101443.22;5076696;27;45991;-57
2022/09/18 10:55:06;;;;;;;;;2.00;2.00;;;;;18.67;41.96;101428.63;5075807;27;45205;-57
2022/09/18 10:57:37;;;;;;;;;1.00;1.00;;;;;18.79;40.95;101446.53;5076987;28;45171;-57
2022/09/18 11:00:23;;;;;;;;;2.00;1.00;;;;;18.90;41.93;101434.06;5076615;27;45456;-56
2022/09/18 11:02:52;;;;;;;;;3.00;1.00;;;;;19.07;41.14;101430.91;5076626;27;46162;-57
2022/09/18 11:05:25;;;;;;;;;2.00;2.00;;;;;18.99;40.85;101444.13;5075649;28;45385;-57
2022/09/18 11:07:55;;;;;;;;;3.00;1.00;;;;;19.10;41.08;101433.34;5076806;27;45368;-57
2022/09/18 11:10:24;;;;;;;;;1.00;0.00;;;;;19.27;40.63;101432.91;5076696;27;45495;-58
2022/09/18 11:12:53;;;;;;;;;1.67;1.67;;;;;19.52;41.26;101414.72;5078832;27;45459;-58
2022/09/18 11:15:21;;;;;;;;;2.00;2.00;;;;;19.80;40.30;101408.88;5096465;27;45240;-58
2022/09/18 11:17:51;;;;;;;;;4.00;2.67;;;;;19.93;39.49;101425.78;5089736;27;45345;-56
2022/09/18 11:20:24;;;;;;;;;1.67;1.67;;;;;20.17;40.15;101430.09;5076649;28;45249;-56
2022/09/18 11:22:50;;;;;;;;;2.00;2.00;;;;;20.14;39.67;101416.88;5077167;27;45548;-57
2022/09/18 11:25:27;;;;;;;;;2.00;2.00;;;;;20.19;40.16;101420.06;5096802;27;45268;-59
2022/09/18 11:27:55;;;;;;;;;2.00;2.00;;;;;20.20;39.55;101419.94;5097327;27;45209;-56
2022/09/18 11:30:26;;;;;;;;;1.33;1.33;;;;;20.31;40.14;101417.19;5095287;27;45283;-56
2022/09/18 11:33:15;;;;;;;;;1.67;1.00;;;;;20.59;39.78;101415.75;5096438;27;46344;-57
2022/09/18 11:35:47;;;;;;;;;1.00;1.00;;;;;20.64;39.13;101414.47;5082700;27;45530;-59
2022/09/18 11:38:18;;;;;;;;;4.33;3.00;;;;;20.84;39.31;101405.53;5075280;27;45390;-57
2022/09/18 11:40:49;;;;;;;;;1.00;1.00;;;;;21.03;38.06;101408.34;5076669;27;45317;-56
2022/09/18 11:43:21;;;;;;;;;1.00;1.00;;;;;21.29;37.89;101429.59;5074950;27;46227;-56